Time;durP1;ratioP1;P1;durP2;ratioP2;P2;SDS_P1;SDS_P2;PMS_P1;PMS_P2;Temp;Humidity;BMP_temperature;BMP_pressure;BME280_temperature;BME280_humidity;BME280_pressure;Samples;Min_cycle;Max_cycle;Signal;HPM_P1;HPM_P2
2023/08/04 00:00:40;;;;;;;2.53;1.48;;;;;;;;;;5034922;28;20658;-38
2023/08/04 00:03:27;;;;;;;3.55;1.77;;;;;;;;;;5034686;28;20633;-38
2023/08/04 00:05:54;;;;;;;2.65;1.30;;;;;;;;;;5034968;28;20263;-37
2023/08/04 00:08:21;;;;;;;3.13;1.63;;;;;;;;;;5034948;28;20200;-38
2023/08/04 00:10:49;;;;;;;3.55;1.90;;;;;;;;;;5034693;28;20196;-37
2023/08/04 00:13:17;;;;;;;4.80;1.92;;;;;;;;;;5035048;28;20200;-38
2023/08/04 00:15:44;;;;;;;6.10;1.80;;;;;;;;;;5034582;28;20726;-37
2023/08/04 00:18:11;;;;;;;3.50;1.70;;;;;;;;;;5034695;28;20207;-38
2023/08/04 00:20:38;;;;;;;2.83;2.10;;;;;;;;;;5034498;28;20206;-37
2023/08/04 00:23:05;;;;;;;3.72;1.85;;;;;;;;;;5034492;28;20204;-38
2023/08/04 00:25:32;;;;;;;5.13;1.75;;;;;;;;;;5034247;28;20224;-37
2023/08/04 00:28:00;;;;;;;1.67;1.35;;;;;;;;;;5034365;28;20209;-37
2023/08/04 00:30:27;;;;;;;2.70;1.70;;;;;;;;;;5034496;28;20200;-37
2023/08/04 00:32:55;;;;;;;6.07;2.05;;;;;;;;;;5033084;28;20549;-37
2023/08/04 00:35:22;;;;;;;3.28;1.65;;;;;;;;;;5066317;28;20662;-37
2023/08/04 00:37:49;;;;;;;3.33;2.25;;;;;;;;;;5033131;28;20211;-37
2023/08/04 00:40:16;;;;;;;6.03;1.88;;;;;;;;;;5033713;28;20669;-37
2023/08/04 00:42:44;;;;;;;3.67;1.52;;;;;;;;;;5034288;28;20212;-37
2023/08/04 00:45:11;;;;;;;8.43;1.63;;;;;;;;;;5034212;28;20220;-37
2023/08/04 00:47:39;;;;;;;4.88;1.75;;;;;;;;;;5033951;28;20665;-37
2023/08/04 00:50:07;;;;;;;1.80;1.38;;;;;;;;;;5033961;28;20201;-37
2023/08/04 00:52:36;;;;;;;6.47;1.88;;;;;;;;;;5033867;28;20231;-37
2023/08/04 00:55:04;;;;;;;4.55;1.50;;;;;;;;;;5033764;28;20216;-37
2023/08/04 00:57:31;;;;;;;2.83;1.90;;;;;;;;;;5033966;28;20215;-37
2023/08/04 00:59:58;;;;;;;2.28;1.55;;;;;;;;;;5032649;28;20696;-37
2023/08/04 01:02:26;;;;;;;2.28;1.65;;;;;;;;;;5016541;28;20188;-37
2023/08/04 01:04:53;;;;;;;3.33;1.73;;;;;;;;;;5033902;28;20352;-37
2023/08/04 01:07:25;;;;;;;2.60;1.58;;;;;;;;;;5033717;28;20266;-37
2023/08/04 01:10:07;;;;;;;4.90;2.00;;;;;;;;;;5033151;28;20186;-37
2023/08/04 01:13:05;;;;;;;3.47;1.92;;;;;;;;;;5032461;28;20653;-37
2023/08/04 01:15:32;;;;;;;5.15;2.03;;;;;;;;;;5030979;28;20669;-37
2023/08/04 01:18:00;;;;;;;4.72;1.83;;;;;;;;;;5033852;28;20201;-37
2023/08/04 01:20:27;;;;;;;3.50;2.05;;;;;;;;;;5033752;28;20255;-37
2023/08/04 01:22:55;;;;;;;4.82;1.80;;;;;;;;;;5033937;28;20603;-37
2023/08/04 01:25:29;;;;;;;3.03;1.77;;;;;;;;;;5033383;28;20688;-37
2023/08/04 01:27:58;;;;;;;1.85;1.45;;;;;;;;;;5033566;28;20219;-37
2023/08/04 01:30:26;;;;;;;6.82;2.33;;;;;;;;;;5032533;28;20288;-37
2023/08/04 01:32:53;;;;;;;4.55;2.25;;;;;;;;;;5032161;28;20689;-37
2023/08/04 01:35:22;;;;;;;3.78;2.22;;;;;;;;;;5033885;28;20231;-37
2023/08/04 01:37:50;;;;;;;4.10;1.85;;;;;;;;;;5032571;28;20544;-37
2023/08/04 01:40:17;;;;;;;6.28;2.00;;;;;;;;;;5033365;28;20223;-37
2023/08/04 01:42:44;;;;;;;4.80;1.92;;;;;;;;;;5033296;28;20205;-37
2023/08/04 01:45:11;;;;;;;3.03;1.90;;;;;;;;;;5033409;28;20252;-37
2023/08/04 01:47:39;;;;;;;6.43;2.20;;;;;;;;;;5033372;28;20212;-38
2023/08/04 01:50:07;;;;;;;2.45;1.58;;;;;;;;;;5033428;28;20208;-37
2023/08/04 01:52:35;;;;;;;7.32;2.35;;;;;;;;;;5033200;28;20225;-37
2023/08/04 01:55:02;;;;;;;2.42;1.83;;;;;;;;;;5037447;28;20215;-37
2023/08/04 01:57:30;;;;;;;2.47;1.83;;;;;;;;;;5037507;28;20208;-37
2023/08/04 01:59:57;;;;;;;4.80;2.05;;;;;;;;;;5037381;28;20204;-37
2023/08/04 02:02:26;;;;;;;3.05;1.70;;;;;;;;;;5036064;28;20274;-37
2023/08/04 02:04:57;;;;;;;3.88;2.08;;;;;;;;;;5035839;28;20319;-37
2023/08/04 02:07:25;;;;;;;5.97;1.90;;;;;;;;;;5035864;28;20227;-37
2023/08/04 02:09:55;;;;;;;2.47;1.88;;;;;;;;;;5035823;28;20202;-37
2023/08/04 02:12:22;;;;;;;3.67;2.17;;;;;;;;;;5037255;28;20208;-37
2023/08/04 02:14:49;;;;;;;3.88;2.15;;;;;;;;;;5037099;28;20205;-37
2023/08/04 02:17:17;;;;;;;4.90;2.00;;;;;;;;;;5036702;28;20213;-37
2023/08/04 02:19:45;;;;;;;3.50;2.10;;;;;;;;;;5035575;28;20200;-37
2023/08/04 02:22:13;;;;;;;2.85;2.00;;;;;;;;;;5036570;28;20681;-37
2023/08/04 02:24:40;;;;;;;3.80;1.85;;;;;;;;;;5036298;28;20205;-37
2023/08/04 02:27:07;;;;;;;3.58;2.28;;;;;;;;;;5036406;28;20228;-37
2023/08/04 02:29:35;;;;;;;3.80;2.00;;;;;;;;;;5036528;28;20197;-37
2023/08/04 02:32:03;;;;;;;5.85;1.90;;;;;;;;;;5035486;28;20204;-37
2023/08/04 02:34:30;;;;;;;3.83;2.08;;;;;;;;;;5035152;28;20212;-37
2023/08/04 02:36:57;;;;;;;4.13;2.00;;;;;;;;;;5036220;28;20215;-37
2023/08/04 02:39:24;;;;;;;3.42;2.03;;;;;;;;;;5036476;28;20605;-37
2023/08/04 02:41:51;;;;;;;4.95;1.73;;;;;;;;;;5035165;28;20200;-38
2023/08/04 02:44:18;;;;;;;2.67;1.90;;;;;;;;;;5036203;28;20589;-37
2023/08/04 02:46:46;;;;;;;3.97;1.77;;;;;;;;;;5034942;28;20220;-37
2023/08/04 02:49:13;;;;;;;6.15;1.75;;;;;;;;;;5035939;28;20655;-37
2023/08/04 02:51:40;;;;;;;5.15;2.15;;;;;;;;;;5034737;28;20736;-37
2023/08/04 02:54:09;;;;;;;3.15;1.83;;;;;;;;;;5035011;28;20600;-37
2023/08/04 02:56:37;;;;;;;2.80;2.03;;;;;;;;;;5034572;28;20650;-37
2023/08/04 02:59:04;;;;;;;3.92;1.77;;;;;;;;;;5036027;28;20205;-38
2023/08/04 03:01:31;;;;;;;2.00;1.80;;;;;;;;;;5035839;28;20188;-37
2023/08/04 03:03:58;;;;;;;3.42;2.25;;;;;;;;;;5035066;28;20641;-37
2023/08/04 03:06:26;;;;;;;2.95;2.00;;;;;;;;;;5035643;28;20225;-37
2023/08/04 03:08:52;;;;;;;4.50;2.00;;;;;;;;;;5035976;28;20216;-38
2023/08/04 03:11:20;;;;;;;6.68;1.83;;;;;;;;;;5035808;28;20262;-37
2023/08/04 03:13:47;;;;;;;3.22;1.88;;;;;;;;;;5035640;28;20400;-37
2023/08/04 03:16:14;;;;;;;2.70;1.85;;;;;;;;;;5035594;28;20684;-37
2023/08/04 03:18:41;;;;;;;5.43;2.10;;;;;;;;;;5035410;28;20208;-37
2023/08/04 03:21:08;;;;;;;2.78;1.63;;;;;;;;;;5035603;28;20213;-37
2023/08/04 03:23:35;;;;;;;4.68;2.38;;;;;;;;;;5035717;28;20196;-37
2023/08/04 03:26:03;;;;;;;4.20;1.73;;;;;;;;;;5035657;28;20225;-38
2023/08/04 03:28:30;;;;;;;2.97;1.73;;;;;;;;;;5035820;28;20200;-37
2023/08/04 03:30:57;;;;;;;3.08;1.65;;;;;;;;;;5035367;28;20217;-38
2023/08/04 03:33:24;;;;;;;4.00;1.70;;;;;;;;;;5035424;28;20769;-37
2023/08/04 03:35:51;;;;;;;2.70;1.85;;;;;;;;;;5035728;28;20209;-37
2023/08/04 03:38:18;;;;;;;3.17;2.22;;;;;;;;;;5035285;28;20299;-38
2023/08/04 03:40:46;;;;;;;3.85;2.00;;;;;;;;;;5035305;28;20767;-37
2023/08/04 03:43:13;;;;;;;4.85;1.83;;;;;;;;;;5034145;28;20228;-37
2023/08/04 03:45:40;;;;;;;2.17;1.50;;;;;;;;;;5035151;28;20235;-37
2023/08/04 03:48:07;;;;;;;2.63;1.73;;;;;;;;;;5035428;28;20213;-38
2023/08/04 03:50:35;;;;;;;8.98;2.22;;;;;;;;;;5035391;28;20208;-37
2023/08/04 03:53:02;;;;;;;6.10;1.67;;;;;;;;;;5035802;28;20205;-37
2023/08/04 03:55:29;;;;;;;4.40;1.83;;;;;;;;;;5035296;28;20205;-38
2023/08/04 03:57:56;;;;;;;2.83;1.80;;;;;;;;;;5034972;28;20236;-37
2023/08/04 04:00:23;;;;;;;4.25;2.00;;;;;;;;;;5035095;28;20201;-37
2023/08/04 04:02:50;;;;;;;8.00;1.95;;;;;;;;;;5035064;28;20200;-38
2023/08/04 04:05:18;;;;;;;3.13;1.60;;;;;;;;;;5034760;28;20244;-37
2023/08/04 04:07:45;;;;;;;3.30;1.98;;;;;;;;;;5035032;28;20243;-38
2023/08/04 04:10:12;;;;;;;4.65;1.90;;;;;;;;;;5034789;28;20658;-38
2023/08/04 04:12:39;;;;;;;2.10;1.73;;;;;;;;;;5034725;28;20204;-37
2023/08/04 04:15:07;;;;;;;7.78;1.92;;;;;;;;;;5033783;28;20212;-37
2023/08/04 04:17:35;;;;;;;3.67;1.48;;;;;;;;;;5034594;28;20291;-37
2023/08/04 04:20:03;;;;;;;3.00;1.80;;;;;;;;;;5034661;28;20205;-37
2023/08/04 04:22:30;;;;;;;4.57;1.73;;;;;;;;;;5034468;28;20279;-38
2023/08/04 04:24:57;;;;;;;2.40;1.88;;;;;;;;;;5034583;28;20204;-38
2023/08/04 04:27:25;;;;;;;4.00;1.65;;;;;;;;;;5034359;28;20635;-37
2023/08/04 04:29:52;;;;;;;2.33;1.65;;;;;;;;;;5034684;28;20201;-38
2023/08/04 04:32:19;;;;;;;2.83;1.67;;;;;;;;;;5034312;28;20211;-37
2023/08/04 04:34:46;;;;;;;3.15;1.50;;;;;;;;;;5034232;28;20201;-38
2023/08/04 04:37:13;;;;;;;3.63;1.52;;;;;;;;;;5034281;28;20259;-37
2023/08/04 04:39:41;;;;;;;2.28;1.60;;;;;;;;;;5034047;28;20255;-37
2023/08/04 04:42:07;;;;;;;2.58;1.42;;;;;;;;;;5034441;28;20287;-38
2023/08/04 04:44:35;;;;;;;2.83;1.73;;;;;;;;;;5034353;28;20197;-37
2023/08/04 04:47:04;;;;;;;2.10;1.63;;;;;;;;;;5034768;28;20224;-38
2023/08/04 04:49:31;;;;;;;3.35;1.92;;;;;;;;;;5034184;28;20209;-37
2023/08/04 04:51:58;;;;;;;2.58;1.90;;;;;;;;;;5033898;28;20200;-37
2023/08/04 04:54:25;;;;;;;3.80;1.80;;;;;;;;;;5033990;28;20250;-38
2023/08/04 04:56:54;;;;;;;4.95;1.80;;;;;;;;;;5034038;28;20213;-37
2023/08/04 04:59:21;;;;;;;2.83;1.88;;;;;;;;;;5033934;28;20662;-38
2023/08/04 05:01:48;;;;;;;1.95;1.58;;;;;;;;;;5033984;28;20283;-37
2023/08/04 05:04:17;;;;;;;3.85;2.25;;;;;;;;;;5034027;28;20228;-38
2023/08/04 05:06:44;;;;;;;2.00;1.40;;;;;;;;;;5033539;28;20298;-37
2023/08/04 05:09:11;;;;;;;5.40;1.58;;;;;;;;;;5033923;28;20567;-37
2023/08/04 05:11:38;;;;;;;4.55;1.90;;;;;;;;;;5033825;28;20644;-37
2023/08/04 05:14:05;;;;;;;3.53;1.52;;;;;;;;;;5033649;28;20205;-37
2023/08/04 05:16:32;;;;;;;3.92;1.60;;;;;;;;;;5033583;28;20215;-37
2023/08/04 05:18:59;;;;;;;3.25;1.70;;;;;;;;;;5033504;28;20200;-37
2023/08/04 05:21:26;;;;;;;2.20;1.67;;;;;;;;;;5033456;28;20232;-38
2023/08/04 05:23:54;;;;;;;3.67;1.60;;;;;;;;;;5033790;28;20585;-37
2023/08/04 05:26:22;;;;;;;2.60;1.45;;;;;;;;;;5033552;28;20221;-39
2023/08/04 05:28:49;;;;;;;2.88;1.80;;;;;;;;;;5033506;28;20232;-37
2023/08/04 05:31:16;;;;;;;2.85;1.65;;;;;;;;;;5033693;28;20208;-38
2023/08/04 05:33:44;;;;;;;2.65;1.60;;;;;;;;;;5033377;28;20731;-37
2023/08/04 05:36:12;;;;;;;2.45;1.42;;;;;;;;;;5033417;28;20217;-38
2023/08/04 05:38:39;;;;;;;3.25;1.67;;;;;;;;;;5033582;28;20278;-38
2023/08/04 05:41:06;;;;;;;6.20;1.70;;;;;;;;;;5033527;28;20224;-38
2023/08/04 05:43:34;;;;;;;4.78;1.52;;;;;;;;;;5033448;28;20189;-37
2023/08/04 05:46:02;;;;;;;2.72;1.50;;;;;;;;;;5033389;28;20197;-38
2023/08/04 05:48:31;;;;;;;2.78;1.60;;;;;;;;;;5033103;28;20205;-37
2023/08/04 05:50:58;;;;;;;6.25;1.60;;;;;;;;;;5033287;28;20213;-38
2023/08/04 05:53:26;;;;;;;2.00;1.52;;;;;;;;;;5032992;28;20201;-37
2023/08/04 05:55:53;;;;;;;2.17;1.27;;;;;;;;;;5033724;28;20196;-37
2023/08/04 05:58:20;;;;;;;3.10;1.60;;;;;;;;;;5033230;28;20214;-38
2023/08/04 06:00:47;;;;;;;4.32;1.75;;;;;;;;;;5033163;28;20201;-38
2023/08/04 06:03:14;;;;;;;5.75;1.40;;;;;;;;;;5033080;28;20204;-38
2023/08/04 06:05:42;;;;;;;6.93;1.42;;;;;;;;;;5033048;28;20237;-37
2023/08/04 06:08:10;;;;;;;7.35;1.40;;;;;;;;;;5032915;28;20224;-37
2023/08/04 06:10:37;;;;;;;4.82;1.65;;;;;;;;;;5033029;28;20211;-38
2023/08/04 06:13:05;;;;;;;2.72;1.33;;;;;;;;;;5033593;28;20582;-37
2023/08/04 06:15:33;;;;;;;1.88;1.05;;;;;;;;;;5033245;28;20209;-37
2023/08/04 06:18:01;;;;;;;2.95;1.52;;;;;;;;;;5033179;28;20251;-38
2023/08/04 06:20:29;;;;;;;2.58;1.27;;;;;;;;;;5032957;28;20224;-37
2023/08/04 06:22:56;;;;;;;2.33;1.17;;;;;;;;;;5033417;28;20228;-38
2023/08/04 06:25:23;;;;;;;1.92;1.13;;;;;;;;;;5033043;28;20196;-38
2023/08/04 06:27:50;;;;;;;3.65;1.30;;;;;;;;;;5032858;28;20220;-38
2023/08/04 06:30:18;;;;;;;2.13;1.35;;;;;;;;;;5033067;28;20231;-38
2023/08/04 06:32:47;;;;;;;4.43;1.45;;;;;;;;;;5033038;28;20200;-37
2023/08/04 06:35:14;;;;;;;1.98;1.00;;;;;;;;;;5033161;28;20208;-37
2023/08/04 06:37:42;;;;;;;3.08;1.23;;;;;;;;;;5032624;28;20208;-38
2023/08/04 06:40:10;;;;;;;2.38;1.30;;;;;;;;;;5036014;28;20669;-38
2023/08/04 06:42:37;;;;;;;2.30;1.15;;;;;;;;;;5036332;28;20271;-37
2023/08/04 06:45:06;;;;;;;4.25;1.38;;;;;;;;;;5036294;28;20211;-38
2023/08/04 06:47:33;;;;;;;3.00;1.00;;;;;;;;;;5036465;28;20228;-37
2023/08/04 06:50:00;;;;;;;3.85;1.40;;;;;;;;;;5036238;28;20692;-38
2023/08/04 06:52:27;;;;;;;4.25;1.30;;;;;;;;;;5036500;28;20207;-37
2023/08/04 06:54:54;;;;;;;3.33;1.60;;;;;;;;;;5036191;28;20215;-38
2023/08/04 06:57:22;;;;;;;2.80;1.25;;;;;;;;;;5036074;28;20211;-37
2023/08/04 06:59:49;;;;;;;3.00;1.20;;;;;;;;;;5035932;28;20254;-38
2023/08/04 07:02:16;;;;;;;1.90;1.10;;;;;;;;;;5036261;28;20209;-37
2023/08/04 07:04:43;;;;;;;2.00;0.90;;;;;;;;;;5035940;28;20232;-37
2023/08/04 07:07:11;;;;;;;3.63;1.20;;;;;;;;;;5035900;28;20232;-38
2023/08/04 07:09:38;;;;;;;5.40;1.52;;;;;;;;;;5035903;28;20212;-37
2023/08/04 07:12:06;;;;;;;2.60;1.33;;;;;;;;;;5036398;28;20208;-37
2023/08/04 07:14:33;;;;;;;2.17;0.95;;;;;;;;;;5035879;28;20688;-37
2023/08/04 07:17:00;;;;;;;7.00;1.48;;;;;;;;;;5035910;28;20208;-38
2023/08/04 07:19:27;;;;;;;3.72;1.15;;;;;;;;;;5035684;28;20234;-38
2023/08/04 07:21:54;;;;;;;4.03;1.20;;;;;;;;;;5034506;28;20254;-38
2023/08/04 07:24:21;;;;;;;1.70;1.30;;;;;;;;;;5035568;28;20203;-38
2023/08/04 07:26:51;;;;;;;2.25;1.40;;;;;;;;;;5035828;28;20224;-38
2023/08/04 07:29:18;;;;;;;3.63;1.17;;;;;;;;;;5035982;28;20201;-37
2023/08/04 07:31:45;;;;;;;3.45;1.55;;;;;;;;;;5035662;28;20208;-37
2023/08/04 07:34:12;;;;;;;3.80;1.30;;;;;;;;;;5035651;28;20208;-37
2023/08/04 07:36:40;;;;;;;1.13;1.02;;;;;;;;;;5035472;28;20213;-38
2023/08/04 07:39:07;;;;;;;2.88;0.98;;;;;;;;;;5035239;28;20197;-37
2023/08/04 07:41:34;;;;;;;2.90;1.20;;;;;;;;;;5035623;28;20201;-38
2023/08/04 07:44:01;;;;;;;3.20;1.38;;;;;;;;;;5035413;28;20557;-38
2023/08/04 07:46:29;;;;;;;2.58;1.25;;;;;;;;;;5035140;28;20205;-37
2023/08/04 07:48:56;;;;;;;8.27;1.55;;;;;;;;;;5035138;28;20251;-37
2023/08/04 07:51:24;;;;;;;2.22;1.38;;;;;;;;;;5033793;28;20215;-37
2023/08/04 07:53:51;;;;;;;6.35;1.20;;;;;;;;;;5035349;28;20533;-38
2023/08/04 07:56:18;;;;;;;1.25;0.90;;;;;;;;;;5035004;28;20204;-38
2023/08/04 07:58:47;;;;;;;3.65;1.00;;;;;;;;;;5034999;28;20223;-37
2023/08/04 08:01:15;;;;;;;2.45;1.02;;;;;;;;;;5035148;28;20204;-37
2023/08/04 08:03:42;;;;;;;1.75;0.90;;;;;;;;;;5034741;28;20278;-38
2023/08/04 08:06:10;;;;;;;1.95;0.82;;;;;;;;;;5035296;28;20209;-38
2023/08/04 08:08:37;;;;;;;3.30;1.15;;;;;;;;;;5034921;28;20283;-37
2023/08/04 08:11:09;;;;;;;2.22;1.13;;;;;;;;;;5035054;28;20200;-37
2023/08/04 08:13:37;;;;;;;3.15;1.00;;;;;;;;;;5034865;28;20266;-36
2023/08/04 08:16:13;;;;;;;3.15;1.13;;;;;;;;;;5034729;28;20208;-37
2023/08/04 08:18:46;;;;;;;1.17;0.90;;;;;;;;;;5033793;28;20659;-38
2023/08/04 08:21:14;;;;;;;2.15;1.02;;;;;;;;;;5034503;28;20738;-37
2023/08/04 08:23:41;;;;;;;3.45;1.13;;;;;;;;;;5034629;28;20208;-37
2023/08/04 08:26:08;;;;;;;3.25;0.98;;;;;;;;;;5034581;28;20200;-39
2023/08/04 08:28:35;;;;;;;1.67;1.10;;;;;;;;;;5033400;28;20229;-37
2023/08/04 08:31:03;;;;;;;2.78;1.20;;;;;;;;;;5034260;28;20204;-38
2023/08/04 08:33:30;;;;;;;5.05;1.10;;;;;;;;;;5034522;28;20207;-37
2023/08/04 08:35:58;;;;;;;3.17;0.88;;;;;;;;;;5034478;28;20205;-37
2023/08/04 08:38:25;;;;;;;2.55;0.95;;;;;;;;;;5033339;28;20262;-37
2023/08/04 08:40:53;;;;;;;3.00;0.90;;;;;;;;;;5034253;28;20228;-37
2023/08/04 08:43:20;;;;;;;1.33;0.80;;;;;;;;;;5033939;28;20205;-37
2023/08/04 08:45:47;;;;;;;2.63;1.05;;;;;;;;;;5034125;28;20211;-38
2023/08/04 08:48:15;;;;;;;2.97;0.93;;;;;;;;;;5034160;28;20229;-37
2023/08/04 08:50:43;;;;;;;1.40;0.88;;;;;;;;;;5034331;28;20649;-38
2023/08/04 08:53:15;;;;;;;1.60;1.02;;;;;;;;;;5033996;28;20205;-37
2023/08/04 08:55:44;;;;;;;2.70;1.13;;;;;;;;;;5034150;28;20247;-37
2023/08/04 08:58:11;;;;;;;1.70;1.15;;;;;;;;;;5034096;28;20319;-37
2023/08/04 09:00:39;;;;;;;1.85;1.00;;;;;;;;;;5033792;28;20685;-37
2023/08/04 09:03:06;;;;;;;1.75;0.90;;;;;;;;;;5033493;28;20208;-37
2023/08/04 09:05:34;;;;;;;1.33;1.00;;;;;;;;;;5034171;28;20228;-37
2023/08/04 09:08:03;;;;;;;1.70;0.80;;;;;;;;;;5033718;28;20299;-37
2023/08/04 09:10:33;;;;;;;2.88;1.02;;;;;;;;;;5032563;28;20208;-38
2023/08/04 09:13:01;;;;;;;1.77;1.23;;;;;;;;;;5033679;28;20189;-38
2023/08/04 09:15:33;;;;;;;1.83;1.00;;;;;;;;;;5033772;28;20200;-37
2023/08/04 09:18:00;;;;;;;3.95;1.30;;;;;;;;;;5033822;28;20295;-37
2023/08/04 09:20:28;;;;;;;2.45;0.90;;;;;;;;;;5032637;28;20254;-37
2023/08/04 09:22:56;;;;;;;2.03;0.90;;;;;;;;;;5033555;28;20201;-37
2023/08/04 09:25:23;;;;;;;2.33;1.15;;;;;;;;;;5033655;28;20203;-37
2023/08/04 09:27:50;;;;;;;3.47;0.80;;;;;;;;;;5015906;28;20244;-38
2023/08/04 09:30:18;;;;;;;3.92;1.17;;;;;;;;;;5033498;28;20208;-38
2023/08/04 09:32:50;;;;;;;6.40;1.33;;;;;;;;;;5033369;28;20200;-37
2023/08/04 09:35:17;;;;;;;1.27;0.98;;;;;;;;;;5033526;28;20203;-37
2023/08/04 09:37:44;;;;;;;1.25;0.80;;;;;;;;;;5033793;28;20653;-38
2023/08/04 09:40:19;;;;;;;1.65;1.20;;;;;;;;;;5033361;28;20606;-37
2023/08/04 09:42:47;;;;;;;2.28;1.05;;;;;;;;;;5033573;28;20232;-37
2023/08/04 09:45:16;;;;;;;4.32;1.40;;;;;;;;;;5033299;28;20654;-37
2023/08/04 09:47:51;;;;;;;2.88;1.10;;;;;;;;;;5033425;28;20267;-38
2023/08/04 09:50:19;;;;;;;3.15;1.27;;;;;;;;;;5033739;28;20192;-37
2023/08/04 09:52:46;;;;;;;2.97;1.00;;;;;;;;;;5033472;28;20223;-37
2023/08/04 09:55:14;;;;;;;3.72;1.20;;;;;;;;;;5033367;28;20201;-37
2023/08/04 09:57:41;;;;;;;1.55;1.00;;;;;;;;;;5033127;28;20212;-37
2023/08/04 10:00:11;;;;;;;3.03;1.20;;;;;;;;;;5033160;28;20200;-37
2023/08/04 10:02:39;;;;;;;1.70;1.10;;;;;;;;;;5033376;28;20217;-38
2023/08/04 10:05:08;;;;;;;3.13;1.05;;;;;;;;;;5032128;28;20236;-37
2023/08/04 10:07:36;;;;;;;1.30;0.93;;;;;;;;;;5031946;28;20577;-37
2023/08/04 10:10:06;;;;;;;4.25;1.25;;;;;;;;;;5031963;28;20593;-37
2023/08/04 10:12:34;;;;;;;1.33;1.23;;;;;;;;;;5033089;28;20205;-37
2023/08/04 10:15:01;;;;;;;1.35;0.95;;;;;;;;;;5036364;28;20243;-38
2023/08/04 10:17:28;;;;;;;3.85;1.45;;;;;;;;;;5035552;28;20731;-37
2023/08/04 10:20:06;;;;;;;1.67;0.90;;;;;;;;;;5037033;28;20209;-37
2023/08/04 10:22:34;;;;;;;2.60;1.35;;;;;;;;;;5036096;28;20254;-37
2023/08/04 10:25:15;;;;;;;3.10;1.30;;;;;;;;;;5037029;28;20601;-37
2023/08/04 10:27:47;;;;;;;1.42;0.90;;;;;;;;;;5036554;28;20216;-37
2023/08/04 10:30:15;;;;;;;1.52;0.73;;;;;;;;;;5036833;28;20193;-37
2023/08/04 10:32:42;;;;;;;2.30;0.93;;;;;;;;;;5036848;28;20205;-37
2023/08/04 10:35:18;;;;;;;4.32;1.08;;;;;;;;;;5036492;28;20654;-37
2023/08/04 10:37:53;;;;;;;1.48;0.95;;;;;;;;;;5035372;28;20719;-37
2023/08/04 10:40:32;;;;;;;1.95;1.10;;;;;;;;;;5036747;28;20192;-37
2023/08/04 10:43:07;;;;;;;1.98;1.00;;;;;;;;;;5037055;28;20235;-38
2023/08/04 10:46:03;;;;;;;2.95;0.82;;;;;;;;;;5036399;28;20594;-37
2023/08/04 10:48:34;;;;;;;2.72;1.08;;;;;;;;;;5036569;28;20328;-38
2023/08/04 10:51:02;;;;;;;5.03;1.00;;;;;;;;;;5036506;28;20267;-38
2023/08/04 10:53:30;;;;;;;2.08;1.00;;;;;;;;;;5036608;28;20204;-37
2023/08/04 10:55:58;;;;;;;2.63;0.95;;;;;;;;;;5035081;28;20201;-37
2023/08/04 10:58:26;;;;;;;3.30;1.30;;;;;;;;;;5036093;28;20213;-37
2023/08/04 11:00:55;;;;;;;5.22;0.82;;;;;;;;;;5036038;28;20721;-37
2023/08/04 11:03:22;;;;;;;2.80;0.95;;;;;;;;;;5036448;28;20205;-38
2023/08/04 11:05:51;;;;;;;2.80;1.13;;;;;;;;;;5036658;28;20233;-38
2023/08/04 11:08:19;;;;;;;2.78;1.15;;;;;;;;;;5034705;28;20224;-37
2023/08/04 11:10:49;;;;;;;4.05;1.25;;;;;;;;;;5035902;28;20681;-38
2023/08/04 11:13:20;;;;;;;4.85;0.80;;;;;;;;;;5035911;28;20227;-38
2023/08/04 11:15:48;;;;;;;1.50;0.80;;;;;;;;;;5035830;28;20672;-38
2023/08/04 11:18:21;;;;;;;2.25;0.70;;;;;;;;;;5035738;28;20208;-37
2023/08/04 11:20:49;;;;;;;2.83;0.90;;;;;;;;;;5035730;28;20203;-37
2023/08/04 11:23:26;;;;;;;1.65;1.02;;;;;;;;;;5035654;28;20200;-37
2023/08/04 11:25:55;;;;;;;2.05;0.80;;;;;;;;;;5035468;28;20204;-37
2023/08/04 11:28:22;;;;;;;8.95;1.25;;;;;;;;;;5035873;28;20256;-37
2023/08/04 11:31:02;;;;;;;2.13;1.15;;;;;;;;;;5035592;28;20662;-37
2023/08/04 11:33:30;;;;;;;4.63;1.25;;;;;;;;;;5035483;28;20200;-37
2023/08/04 11:35:57;;;;;;;2.05;1.02;;;;;;;;;;5035416;28;20207;-37
2023/08/04 11:38:24;;;;;;;3.72;1.02;;;;;;;;;;5035241;28;20259;-37
2023/08/04 11:41:01;;;;;;;1.30;0.85;;;;;;;;;;5035317;28;20203;-38
2023/08/04 11:43:30;;;;;;;2.22;0.93;;;;;;;;;;5035529;28;20231;-37
2023/08/04 11:45:58;;;;;;;4.80;0.90;;;;;;;;;;5035789;28;20205;-37
2023/08/04 11:48:27;;;;;;;6.32;1.00;;;;;;;;;;5035462;28;20220;-37
2023/08/04 11:50:56;;;;;;;2.97;1.08;;;;;;;;;;5035210;28;20740;-38
2023/08/04 11:53:24;;;;;;;4.15;0.90;;;;;;;;;;5035079;28;20204;-37
2023/08/04 11:55:58;;;;;;;2.55;1.15;;;;;;;;;;5035055;28;20201;-38
2023/08/04 11:58:29;;;;;;;1.05;0.82;;;;;;;;;;5034974;28;20196;-37
2023/08/04 12:00:56;;;;;;;2.75;1.10;;;;;;;;;;5035055;28;20196;-38
2023/08/04 12:03:23;;;;;;;3.30;0.90;;;;;;;;;;5034852;28;20201;-38
2023/08/04 12:05:51;;;;;;;1.55;0.82;;;;;;;;;;5035179;28;20236;-38
2023/08/04 12:08:18;;;;;;;2.85;1.30;;;;;;;;;;5035104;28;20290;-37
2023/08/04 12:10:59;;;;;;;2.45;1.13;;;;;;;;;;5034853;28;20201;-37
2023/08/04 12:13:35;;;;;;;7.05;1.20;;;;;;;;;;5035027;28;20188;-38
2023/08/04 12:16:03;;;;;;;4.00;0.85;;;;;;;;;;5034700;28;20201;-37
2023/08/04 12:18:30;;;;;;;2.08;1.10;;;;;;;;;;5034907;28;20202;-37
2023/08/04 12:20:58;;;;;;;2.97;0.95;;;;;;;;;;5034841;28;20255;-37
2023/08/04 12:23:25;;;;;;;4.20;0.93;;;;;;;;;;5034489;28;20219;-37
2023/08/04 12:25:52;;;;;;;2.78;0.77;;;;;;;;;;5034469;28;20212;-38
2023/08/04 12:28:19;;;;;;;3.08;1.13;;;;;;;;;;5034397;28;20255;-37
2023/08/04 12:30:50;;;;;;;2.72;1.00;;;;;;;;;;5034762;28;20203;-37
2023/08/04 12:33:37;;;;;;;5.22;1.08;;;;;;;;;;5034582;28;20201;-37
2023/08/04 12:36:04;;;;;;;1.08;0.73;;;;;;;;;;5033750;28;20201;-37
2023/08/04 12:38:32;;;;;;;1.58;0.80;;;;;;;;;;5034271;28;20685;-38
2023/08/04 12:40:59;;;;;;;1.70;0.77;;;;;;;;;;5034255;28;20212;-38
2023/08/04 12:43:26;;;;;;;3.85;1.23;;;;;;;;;;5034473;28;20208;-37
2023/08/04 12:45:54;;;;;;;2.80;1.10;;;;;;;;;;5034131;28;20207;-37
2023/08/04 12:48:21;;;;;;;2.05;0.90;;;;;;;;;;5034296;28;20228;-38
2023/08/04 12:50:48;;;;;;;1.83;0.98;;;;;;;;;;5034300;28;20196;-37
2023/08/04 12:53:15;;;;;;;4.57;0.90;;;;;;;;;;5033914;28;20650;-38
2023/08/04 12:55:43;;;;;;;1.67;0.77;;;;;;;;;;5034252;28;20217;-37
2023/08/04 12:58:10;;;;;;;1.83;0.80;;;;;;;;;;5034233;28;20216;-37
2023/08/04 13:00:37;;;;;;;2.10;0.70;;;;;;;;;;5033849;28;20211;-37
2023/08/04 13:03:04;;;;;;;1.60;0.80;;;;;;;;;;5033862;28;20254;-38
2023/08/04 13:05:32;;;;;;;2.90;0.98;;;;;;;;;;5033724;28;20640;-37
2023/08/04 13:07:59;;;;;;;0.90;0.55;;;;;;;;;;5032568;28;20288;-38
2023/08/04 13:10:26;;;;;;;1.98;0.65;;;;;;;;;;5034148;28;20212;-37
2023/08/04 13:12:57;;;;;;;1.48;0.73;;;;;;;;;;5034222;28;20204;-37
2023/08/04 13:15:24;;;;;;;1.55;0.70;;;;;;;;;;5033841;28;20200;-38
2023/08/04 13:17:52;;;;;;;3.33;1.02;;;;;;;;;;5033776;28;20204;-37
2023/08/04 13:20:19;;;;;;;1.63;0.88;;;;;;;;;;5033723;28;20566;-38
2023/08/04 13:22:47;;;;;;;3.05;0.93;;;;;;;;;;5033484;28;20654;-37
2023/08/04 13:25:14;;;;;;;1.55;0.93;;;;;;;;;;5033551;28;20207;-38
2023/08/04 13:27:41;;;;;;;2.13;0.80;;;;;;;;;;5033819;28;20200;-38
2023/08/04 13:30:08;;;;;;;1.30;0.90;;;;;;;;;;5033553;28;20213;-37
2023/08/04 13:32:35;;;;;;;4.53;1.25;;;;;;;;;;5033411;28;20196;-38
2023/08/04 13:35:03;;;;;;;1.48;0.77;;;;;;;;;;5033407;28;20579;-37
2023/08/04 13:37:30;;;;;;;2.40;0.77;;;;;;;;;;5033343;28;20255;-38
2023/08/04 13:39:58;;;;;;;3.53;1.10;;;;;;;;;;5033614;28;20208;-38
2023/08/04 13:42:24;;;;;;;4.80;0.95;;;;;;;;;;5033426;28;20204;-38
2023/08/04 13:44:52;;;;;;;1.67;0.60;;;;;;;;;;5033317;28;20211;-37
2023/08/04 13:47:19;;;;;;;0.98;0.75;;;;;;;;;;5033979;28;20208;-37
2023/08/04 13:49:47;;;;;;;1.92;0.90;;;;;;;;;;5037312;28;20220;-37
2023/08/04 13:52:14;;;;;;;2.55;0.65;;;;;;;;;;5037788;28;20219;-38
2023/08/04 13:54:41;;;;;;;2.70;1.13;;;;;;;;;;5037661;28;20207;-37
2023/08/04 13:57:08;;;;;;;2.15;0.80;;;;;;;;;;5037965;28;20204;-37
2023/08/04 13:59:35;;;;;;;3.97;1.00;;;;;;;;;;5037271;28;20209;-37
2023/08/04 14:02:02;;;;;;;2.22;1.08;;;;;;;;;;5037258;28;20212;-38
2023/08/04 14:04:29;;;;;;;1.60;0.70;;;;;;;;;;5037205;28;20701;-38
2023/08/04 14:06:57;;;;;;;3.55;1.27;;;;;;;;;;5037425;28;20220;-38
2023/08/04 14:09:25;;;;;;;2.00;0.90;;;;;;;;;;5037110;28;20232;-37
2023/08/04 14:11:52;;;;;;;1.77;0.80;;;;;;;;;;5037112;28;20204;-38
2023/08/04 14:14:19;;;;;;;2.20;0.90;;;;;;;;;;5037107;28;20259;-38
2023/08/04 14:16:46;;;;;;;1.98;1.10;;;;;;;;;;5037149;28;20247;-37
2023/08/04 14:19:14;;;;;;;1.85;0.60;;;;;;;;;;5036732;28;20618;-38
2023/08/04 14:21:41;;;;;;;1.58;0.98;;;;;;;;;;5036798;28;20684;-37
2023/08/04 14:24:08;;;;;;;1.90;1.00;;;;;;;;;;5037144;28;20205;-37
2023/08/04 14:26:35;;;;;;;6.97;0.88;;;;;;;;;;5035979;28;20205;-37
2023/08/04 14:29:04;;;;;;;2.40;0.90;;;;;;;;;;5036691;28;20232;-38
2023/08/04 14:31:31;;;;;;;2.75;1.10;;;;;;;;;;5036652;28;20201;-38
2023/08/04 14:33:58;;;;;;;4.00;0.90;;;;;;;;;;5036554;28;20712;-38
2023/08/04 14:36:25;;;;;;;2.50;0.98;;;;;;;;;;5036898;28;20207;-37
2023/08/04 14:38:53;;;;;;;2.33;0.90;;;;;;;;;;5036666;28;20201;-39
2023/08/04 14:41:20;;;;;;;1.98;1.17;;;;;;;;;;5036391;28;20697;-37
2023/08/04 14:43:47;;;;;;;1.38;0.85;;;;;;;;;;5036450;28;20731;-37
2023/08/04 14:46:14;;;;;;;2.65;0.90;;;;;;;;;;5036725;28;20200;-38
2023/08/04 14:48:42;;;;;;;2.22;1.13;;;;;;;;;;5036238;28;20696;-38